createdAt,value
2018-08-23T00:00:52.001Z,0.00
2018-08-23T00:01:52.248Z,0.00
2018-08-23T00:02:52.494Z,0.00
2018-08-23T00:03:52.732Z,0.00
2018-08-23T00:04:52.980Z,0.00
2018-08-23T00:05:53.222Z,0.00
2018-08-23T00:06:53.467Z,0.00
2018-08-23T00:07:53.714Z,0.00
2018-08-23T00:08:53.953Z,0.00
2018-08-23T00:09:54.196Z,0.00
2018-08-23T00:10:54.439Z,0.00
2018-08-23T00:11:54.690Z,0.00
2018-08-23T00:12:54.925Z,0.00
2018-08-23T00:13:55.234Z,0.00
2018-08-23T00:14:55.410Z,0.00
2018-08-23T00:15:55.671Z,0.00
2018-08-23T00:16:55.901Z,0.00
2018-08-23T00:17:56.148Z,0.00
2018-08-23T00:18:56.389Z,0.00
2018-08-23T00:19:56.623Z,0.00
2018-08-23T00:20:56.868Z,0.00
2018-08-23T00:21:57.110Z,0.00
2018-08-23T00:22:57.355Z,0.00
2018-08-23T00:23:57.598Z,0.00
2018-08-23T00:24:57.841Z,0.00
2018-08-23T00:25:58.088Z,0.00
2018-08-23T00:26:58.341Z,0.00
2018-08-23T00:27:58.572Z,0.00
2018-08-23T00:28:58.816Z,0.00
2018-08-23T00:29:59.058Z,0.00
2018-08-23T00:30:59.304Z,0.00
2018-08-23T00:31:59.540Z,0.00
2018-08-23T00:32:59.782Z,0.00
2018-08-23T00:34:00.027Z,0.00
2018-08-23T00:35:00.266Z,0.00
2018-08-23T00:36:00.501Z,0.00
2018-08-23T00:37:00.742Z,0.00
2018-08-23T00:38:00.984Z,0.00
2018-08-23T00:39:01.226Z,0.00
2018-08-23T00:40:01.469Z,0.00
2018-08-23T00:41:01.712Z,0.00
2018-08-23T00:42:01.954Z,0.00
2018-08-23T00:43:02.197Z,0.00
2018-08-23T00:44:02.439Z,0.00
2018-08-23T00:45:02.682Z,0.00
2018-08-23T00:46:02.925Z,0.00
2018-08-23T00:47:03.167Z,0.00
2018-08-23T00:48:03.410Z,0.00
2018-08-23T00:49:03.653Z,0.00
2018-08-23T00:50:03.897Z,0.00
2018-08-23T00:51:04.139Z,0.00
2018-08-23T00:52:04.381Z,0.00
2018-08-23T00:53:04.622Z,0.00
2018-08-23T00:54:04.879Z,0.00
2018-08-23T00:55:05.112Z,0.00
2018-08-23T00:56:05.347Z,0.00
2018-08-23T00:57:05.588Z,0.00
2018-08-23T00:58:05.845Z,0.00
2018-08-23T00:59:06.074Z,0.00
2018-08-23T01:00:06.315Z,0.00
2018-08-23T01:01:06.553Z,0.00
2018-08-23T01:02:06.796Z,0.00
2018-08-23T01:03:07.034Z,0.00
2018-08-23T01:04:07.282Z,0.00
2018-08-23T01:05:07.523Z,0.00
2018-08-23T01:06:07.752Z,0.00
2018-08-23T01:07:07.997Z,0.00
2018-08-23T01:08:08.240Z,0.00
2018-08-23T01:09:08.476Z,0.00
2018-08-23T01:10:08.717Z,0.00
2018-08-23T01:11:08.954Z,0.00
2018-08-23T01:12:09.201Z,0.00
2018-08-23T01:13:09.445Z,0.00
2018-08-23T01:14:09.682Z,0.00
2018-08-23T01:15:09.917Z,0.00
2018-08-23T01:16:10.164Z,0.00
2018-08-23T01:17:10.464Z,0.00
2018-08-23T01:18:10.650Z,0.00
2018-08-23T01:19:10.893Z,0.00
2018-08-23T01:20:11.129Z,0.00
2018-08-23T01:21:11.373Z,0.00
2018-08-23T01:22:11.616Z,0.00
2018-08-23T01:23:11.858Z,0.00
2018-08-23T01:24:12.095Z,0.00
2018-08-23T01:25:12.329Z,0.00
2018-08-23T01:26:12.576Z,0.00
2018-08-23T01:27:12.815Z,0.00
2018-08-23T01:28:13.059Z,0.00
2018-08-23T01:29:13.299Z,0.00
2018-08-23T01:30:13.541Z,0.00
2018-08-23T01:31:13.784Z,0.00
2018-08-23T01:32:14.027Z,0.00
2018-08-23T01:33:14.267Z,0.00
2018-08-23T01:34:14.517Z,0.00
2018-08-23T01:35:14.750Z,0.00
2018-08-23T01:36:14.993Z,0.00
2018-08-23T01:37:15.237Z,0.00
2018-08-23T01:38:15.479Z,0.00
2018-08-23T01:39:15.712Z,0.00
2018-08-23T01:40:15.955Z,0.00
2018-08-23T01:41:16.199Z,0.00
2018-08-23T01:42:16.447Z,0.00
2018-08-23T01:43:16.683Z,0.00
2018-08-23T01:44:16.923Z,0.00
2018-08-23T01:45:17.166Z,0.00
2018-08-23T01:46:17.408Z,0.00
2018-08-23T01:47:17.646Z,0.00
2018-08-23T01:48:17.892Z,0.00
2018-08-23T01:49:18.131Z,0.00
2018-08-23T01:50:18.387Z,0.00
2018-08-23T01:51:18.630Z,0.00
2018-08-23T01:52:18.852Z,0.00
2018-08-23T01:53:19.113Z,0.00
2018-08-23T01:54:19.337Z,0.00
2018-08-23T01:55:19.580Z,0.00
2018-08-23T01:56:19.830Z,0.00
2018-08-23T01:57:20.093Z,0.00
2018-08-23T01:58:20.327Z,0.00
2018-08-23T01:59:20.570Z,0.00
2018-08-23T02:00:20.807Z,0.00
2018-08-23T02:01:21.051Z,0.00
2018-08-23T02:02:21.286Z,0.00
2018-08-23T02:03:21.530Z,0.00
2018-08-23T02:04:21.771Z,0.00
2018-08-23T02:05:22.011Z,0.00
2018-08-23T02:06:22.253Z,0.00
2018-08-23T02:07:22.512Z,0.00
2018-08-23T02:08:22.756Z,0.00
2018-08-23T02:09:22.987Z,0.00
2018-08-23T02:10:23.233Z,0.00
2018-08-23T02:11:23.452Z,0.00
2018-08-23T02:12:23.694Z,0.00
2018-08-23T02:13:23.931Z,0.00
2018-08-23T02:14:24.174Z,0.00
2018-08-23T02:15:24.418Z,0.00
2018-08-23T02:16:24.681Z,0.00
2018-08-23T02:17:24.930Z,0.00
2018-08-23T02:18:25.157Z,0.00
2018-08-23T02:19:25.423Z,0.00
2018-08-23T02:20:25.640Z,0.00
2018-08-23T02:21:25.880Z,0.00
2018-08-23T02:22:26.131Z,0.00
2018-08-23T02:23:26.373Z,0.00
2018-08-23T02:24:26.591Z,0.00
2018-08-23T02:25:26.848Z,0.00
2018-08-23T02:26:27.079Z,0.00
2018-08-23T02:27:27.308Z,0.00
2018-08-23T02:28:27.541Z,0.00
2018-08-23T02:29:27.777Z,0.00
2018-08-23T02:30:28.020Z,0.00
2018-08-23T02:31:28.271Z,0.00
2018-08-23T02:32:28.498Z,0.00
2018-08-23T02:33:28.740Z,0.00
2018-08-23T02:34:28.997Z,0.00
2018-08-23T02:35:29.214Z,0.00
2018-08-23T02:36:29.445Z,0.00
2018-08-23T02:37:29.704Z,0.00
2018-08-23T02:38:29.911Z,0.00
2018-08-23T02:39:30.170Z,0.00
2018-08-23T02:40:30.382Z,0.00
2018-08-23T02:41:30.618Z,0.00
2018-08-23T02:42:30.865Z,0.00
2018-08-23T02:43:31.088Z,0.00
2018-08-23T02:44:31.333Z,0.00
2018-08-23T02:45:31.556Z,0.00
2018-08-23T02:46:31.819Z,0.00
2018-08-23T02:47:32.040Z,0.00
2018-08-23T02:48:32.304Z,0.00
2018-08-23T02:49:32.530Z,0.00
2018-08-23T02:50:32.782Z,0.00
2018-08-23T02:51:33.017Z,0.00
2018-08-23T02:52:33.274Z,0.00
2018-08-23T02:53:33.504Z,0.00
2018-08-23T02:54:33.763Z,0.00
2018-08-23T02:55:34.025Z,0.00
2018-08-23T02:56:34.228Z,0.00
2018-08-23T02:57:34.496Z,0.00
2018-08-23T02:58:34.742Z,0.00
2018-08-23T02:59:34.947Z,0.00
2018-08-23T03:00:35.234Z,0.00
2018-08-23T03:01:35.413Z,0.00
2018-08-23T03:02:35.650Z,0.00
2018-08-23T03:03:35.911Z,0.00
2018-08-23T03:04:36.124Z,0.00
2018-08-23T03:05:36.371Z,0.00
2018-08-23T03:06:36.614Z,0.00
2018-08-23T03:07:36.846Z,0.00
2018-08-23T03:08:37.103Z,0.00
2018-08-23T03:09:37.310Z,0.00
2018-08-23T03:10:37.539Z,0.00
2018-08-23T03:11:37.781Z,0.00
2018-08-23T03:12:38.023Z,0.00
2018-08-23T03:13:38.262Z,0.00
2018-08-23T03:14:38.494Z,0.00
2018-08-23T03:15:38.740Z,0.00
2018-08-23T03:16:38.995Z,0.00
2018-08-23T03:17:39.208Z,0.00
2018-08-23T03:18:39.452Z,0.00
2018-08-23T03:19:39.698Z,0.00
2018-08-23T03:20:39.953Z,0.00
2018-08-23T03:21:40.189Z,0.00
2018-08-23T03:22:40.447Z,0.00
2018-08-23T03:23:40.693Z,0.00
2018-08-23T03:24:40.940Z,0.00
2018-08-23T03:25:41.188Z,0.00
2018-08-23T03:26:41.396Z,0.00
2018-08-23T03:27:41.637Z,0.00
2018-08-23T03:28:41.883Z,0.00
2018-08-23T03:29:42.125Z,0.00
2018-08-23T03:30:42.360Z,0.00
2018-08-23T03:31:42.613Z,0.00
2018-08-23T03:32:42.851Z,0.00
2018-08-23T03:33:43.070Z,0.00
2018-08-23T03:34:43.298Z,0.00
2018-08-23T03:35:43.573Z,0.00
2018-08-23T03:36:43.786Z,0.00
2018-08-23T03:37:44.060Z,0.00
2018-08-23T03:38:44.292Z,0.00
2018-08-23T03:39:44.513Z,0.00
2018-08-23T03:40:44.765Z,0.00
2018-08-23T03:41:45.179Z,0.00
2018-08-23T03:42:45.372Z,0.00
2018-08-23T03:43:45.613Z,0.00
2018-08-23T03:44:45.822Z,0.00
2018-08-23T03:45:46.096Z,0.00
2018-08-23T03:46:46.306Z,4.00
2018-08-23T03:47:46.562Z,4.00
2018-08-23T03:48:46.772Z,0.00
2018-08-23T03:49:47.010Z,4.00
2018-08-23T03:50:47.263Z,4.00
2018-08-23T03:51:47.498Z,4.00
2018-08-23T03:52:47.730Z,4.00
2018-08-23T03:53:47.952Z,4.00
2018-08-23T03:54:48.238Z,8.00
2018-08-23T03:55:48.438Z,8.00
2018-08-23T03:56:48.674Z,12.00
2018-08-23T03:57:48.908Z,12.00
2018-08-23T03:58:49.163Z,16.00
2018-08-23T03:59:49.383Z,20.00
2018-08-23T04:00:49.628Z,20.00
2018-08-23T04:01:49.845Z,24.00
2018-08-23T04:02:50.086Z,32.00
2018-08-23T04:03:50.311Z,36.00
2018-08-23T04:04:50.549Z,44.00
2018-08-23T04:05:50.794Z,52.00
2018-08-23T04:06:51.030Z,60.00
2018-08-23T04:07:51.272Z,68.00
2018-08-23T04:08:51.519Z,80.00
2018-08-23T04:09:51.753Z,88.00
2018-08-23T04:10:51.997Z,104.00
2018-08-23T04:11:52.238Z,120.00
2018-08-23T04:12:52.481Z,136.00
2018-08-23T04:13:52.722Z,152.00
2018-08-23T04:14:52.962Z,176.00
2018-08-23T04:15:53.204Z,192.00
2018-08-23T04:16:53.445Z,220.00
2018-08-23T04:17:53.688Z,244.00
2018-08-23T04:18:53.945Z,272.00
2018-08-23T04:19:54.198Z,304.00
2018-08-23T04:20:54.400Z,332.00
2018-08-23T04:21:54.640Z,364.00
2018-08-23T04:22:54.957Z,396.00
2018-08-23T04:23:55.120Z,432.00
2018-08-23T04:24:55.358Z,468.00
2018-08-23T04:25:55.591Z,508.00
2018-08-23T04:26:55.843Z,548.00
2018-08-23T04:27:56.071Z,588.00
2018-08-23T04:28:56.332Z,636.00
2018-08-23T04:29:56.541Z,680.00
2018-08-23T04:30:56.793Z,724.00
2018-08-23T04:31:57.012Z,776.00
2018-08-23T04:32:57.244Z,824.00
2018-08-23T04:33:57.494Z,876.00
2018-08-23T04:34:57.720Z,932.00
2018-08-23T04:35:57.941Z,984.00
2018-08-23T04:36:58.184Z,1044.00
2018-08-23T04:37:58.411Z,1100.00
2018-08-23T04:38:58.644Z,1160.00
2018-08-23T04:39:58.909Z,1220.00
2018-08-23T04:40:59.131Z,1276.00
2018-08-23T04:41:59.365Z,1332.00
2018-08-23T04:42:59.591Z,1392.00
2018-08-23T04:43:59.829Z,1452.00
2018-08-23T04:45:00.099Z,1516.00
2018-08-23T04:46:00.329Z,1576.00
2018-08-23T04:47:00.569Z,1640.00
2018-08-23T04:48:00.804Z,1704.00
2018-08-23T04:49:01.026Z,1768.00
2018-08-23T04:50:01.272Z,1836.00
2018-08-23T04:51:01.507Z,1908.00
2018-08-23T04:52:01.754Z,1996.00
2018-08-23T04:53:01.991Z,2084.00
2018-08-23T04:54:02.231Z,2160.00
2018-08-23T04:55:02.460Z,2228.00
2018-08-23T04:56:02.700Z,2296.00
2018-08-23T04:57:02.932Z,2364.00
2018-08-23T04:58:03.179Z,2432.00
2018-08-23T04:59:03.507Z,2504.00
2018-08-23T05:00:03.672Z,2572.00
2018-08-23T05:01:03.906Z,2644.00
2018-08-23T05:02:04.163Z,2720.00
2018-08-23T05:03:04.403Z,2792.00
2018-08-23T05:04:04.666Z,2864.00
2018-08-23T05:05:04.894Z,2944.00
2018-08-23T05:06:14.019Z,3020.00
2018-08-23T05:07:05.512Z,3096.00
2018-08-23T05:08:06.388Z,3172.00
2018-08-23T05:09:14.551Z,3248.00
2018-08-23T05:10:14.147Z,3316.00
2018-08-23T05:11:06.822Z,3392.00
2018-08-23T05:12:07.066Z,3460.00
2018-08-23T05:13:07.498Z,3524.00
2018-08-23T05:14:07.615Z,3596.00
2018-08-23T05:15:07.861Z,3656.00
2018-08-23T05:16:08.107Z,3716.00
2018-08-23T05:17:08.349Z,3772.00
2018-08-23T05:18:08.591Z,3828.00
2018-08-23T05:19:08.835Z,3888.00
2018-08-23T05:20:09.077Z,3948.00
2018-08-23T05:21:09.312Z,4016.00
2018-08-23T05:22:09.557Z,4080.00
2018-08-23T05:23:09.855Z,4136.00
2018-08-23T05:24:10.044Z,4204.00
2018-08-23T05:25:10.276Z,4264.00
2018-08-23T05:26:10.536Z,4324.00
2018-08-23T05:27:10.778Z,4352.00
2018-08-23T05:28:11.029Z,4464.00
2018-08-23T05:29:11.262Z,4520.00
2018-08-23T05:30:11.506Z,4584.00
2018-08-23T05:31:11.733Z,4640.00
2018-08-23T05:32:11.985Z,4696.00
2018-08-23T05:33:12.245Z,4756.00
2018-08-23T05:34:12.442Z,4804.00
2018-08-23T05:35:12.693Z,4852.00
2018-08-23T05:36:12.934Z,4900.00
2018-08-23T05:37:13.172Z,4944.00
2018-08-23T05:38:13.388Z,4996.00
2018-08-23T05:39:13.649Z,5044.00
2018-08-23T05:40:13.900Z,5088.00
2018-08-23T05:41:14.122Z,5136.00
2018-08-23T05:42:14.378Z,5184.00
2018-08-23T05:43:14.580Z,5228.00
2018-08-23T05:44:14.835Z,5272.00
2018-08-23T05:45:15.065Z,5312.00
2018-08-23T05:46:15.312Z,5356.00
2018-08-23T05:47:15.559Z,5408.00
2018-08-23T05:48:15.820Z,5448.00
2018-08-23T05:49:16.046Z,5492.00
2018-08-23T05:50:16.294Z,5540.00
2018-08-23T05:51:16.552Z,5584.00
2018-08-23T05:52:16.780Z,5620.00
2018-08-23T05:53:17.025Z,5660.00
2018-08-23T05:54:17.260Z,5688.00
2018-08-23T05:55:17.502Z,5724.00
2018-08-23T05:56:17.746Z,5764.00
2018-08-23T05:57:17.990Z,5808.00
2018-08-23T05:58:18.239Z,5852.00
2018-08-23T05:59:18.477Z,5900.00
2018-08-23T06:00:18.720Z,5996.00
2018-08-23T06:01:18.964Z,6112.00
2018-08-23T06:02:19.211Z,6184.00
2018-08-23T06:03:19.467Z,6236.00
2018-08-23T06:04:19.692Z,6260.00
2018-08-23T06:05:19.934Z,6284.00
2018-08-23T06:06:20.175Z,6300.00
2018-08-23T06:07:20.418Z,6332.00
2018-08-23T06:08:20.703Z,6364.00
2018-08-23T06:09:20.902Z,6408.00
2018-08-23T06:10:21.139Z,6456.00
2018-08-23T06:11:21.377Z,6508.00
2018-08-23T06:12:21.619Z,6568.00
2018-08-23T06:13:21.861Z,6620.00
2018-08-23T06:14:22.105Z,6668.00
2018-08-23T06:15:22.337Z,6716.00
2018-08-23T06:16:22.587Z,6764.00
2018-08-23T06:17:22.833Z,6792.00
2018-08-23T06:18:23.075Z,6816.00
2018-08-23T06:19:23.318Z,6832.00
2018-08-23T06:20:23.557Z,6848.00
2018-08-23T06:21:23.800Z,6868.00
2018-08-23T06:22:24.049Z,6900.00
2018-08-23T06:23:24.291Z,6928.00
2018-08-23T06:24:24.537Z,6956.00
2018-08-23T06:25:24.780Z,6988.00
2018-08-23T06:26:25.025Z,7004.00
2018-08-23T06:27:25.309Z,7044.00
2018-08-23T06:28:25.519Z,7064.00
2018-08-23T06:29:25.776Z,7104.00
2018-08-23T06:30:25.998Z,7144.00
2018-08-23T06:31:26.243Z,7168.00
2018-08-23T06:32:26.489Z,7184.00
2018-08-23T06:33:26.946Z,7212.00
2018-08-23T06:34:26.968Z,7240.00
2018-08-23T06:35:27.214Z,7272.00
2018-08-23T06:36:27.455Z,7304.00
2018-08-23T06:37:27.699Z,7344.00
2018-08-23T06:38:27.944Z,9084.00
2018-08-23T06:39:28.189Z,12260.00
2018-08-23T06:40:28.435Z,12612.00
2018-08-23T06:41:28.681Z,11712.00
2018-08-23T06:42:28.925Z,12188.00
2018-08-23T06:43:29.175Z,12452.00
2018-08-23T06:44:29.424Z,12500.00
2018-08-23T06:45:29.653Z,12512.00
2018-08-23T06:46:29.908Z,12404.00
2018-08-23T06:47:30.249Z,12728.00
2018-08-23T06:48:30.492Z,13260.00
2018-08-23T06:49:30.718Z,12264.00
2018-08-23T06:50:30.958Z,11948.00
2018-08-23T06:51:31.205Z,12264.00
2018-08-23T06:52:31.461Z,12040.00
2018-08-23T06:53:31.701Z,12520.00
2018-08-23T06:54:31.949Z,12620.00
2018-08-23T06:55:32.197Z,12780.00
2018-08-23T06:56:32.463Z,13652.00
2018-08-23T06:57:32.684Z,12768.00
2018-08-23T06:58:32.931Z,11928.00
2018-08-23T06:59:33.180Z,12492.00
2018-08-23T07:00:33.427Z,13280.00
2018-08-23T07:01:33.686Z,12668.00
2018-08-23T07:02:33.926Z,13188.00
2018-08-23T07:03:34.199Z,13564.00
2018-08-23T07:04:34.432Z,12528.00
2018-08-23T07:05:34.710Z,13108.00
2018-08-23T07:06:34.952Z,14036.00
2018-08-23T07:07:35.179Z,13452.00
2018-08-23T07:08:35.429Z,12820.00
2018-08-23T07:09:35.677Z,12676.00
2018-08-23T07:10:35.928Z,13816.00
2018-08-23T07:11:36.182Z,14304.00
2018-08-23T07:12:36.426Z,13088.00
2018-08-23T07:13:36.681Z,12608.00
2018-08-23T07:14:36.926Z,13372.00
2018-08-23T07:15:37.178Z,13880.00
2018-08-23T07:16:37.427Z,13624.00
2018-08-23T07:17:37.770Z,13652.00
2018-08-23T07:18:37.949Z,14124.00
2018-08-23T07:19:38.176Z,14436.00
2018-08-23T07:20:38.427Z,14292.00
2018-08-23T07:21:38.679Z,14416.00
2018-08-23T07:22:38.950Z,14932.00
2018-08-23T07:23:39.184Z,15032.00
2018-08-23T07:24:39.433Z,14296.00
2018-08-23T07:25:39.687Z,13692.00
2018-08-23T07:26:39.971Z,13496.00
2018-08-23T07:27:40.196Z,13696.00
2018-08-23T07:28:40.453Z,14092.00
2018-08-23T07:29:40.715Z,14636.00
2018-08-23T07:30:40.960Z,14660.00
2018-08-23T07:31:41.219Z,14456.00
2018-08-23T07:32:41.469Z,14900.00
2018-08-23T07:33:41.729Z,15428.00
2018-08-23T07:34:41.980Z,16308.00
2018-08-23T07:35:42.253Z,17088.00
2018-08-23T07:36:42.482Z,17600.00
2018-08-23T07:37:42.735Z,17408.00
2018-08-23T07:38:42.988Z,16800.00
2018-08-23T07:39:43.241Z,17056.00
2018-08-23T07:40:43.492Z,17472.00
2018-08-23T07:41:43.746Z,18016.00
2018-08-23T07:42:43.998Z,18368.00
2018-08-23T07:43:44.251Z,18528.00
2018-08-23T07:44:44.508Z,13332.00
2018-08-23T07:45:44.758Z,16084.00
2018-08-23T07:46:45.008Z,15360.00
2018-08-23T07:47:45.262Z,17248.00
2018-08-23T07:48:45.515Z,19840.00
2018-08-23T07:49:45.767Z,23584.00
2018-08-23T07:50:46.019Z,27136.00
2018-08-23T07:51:46.285Z,38272.00
2018-08-23T07:52:46.632Z,41408.00
2018-08-23T07:53:46.785Z,37024.00
2018-08-23T07:54:47.071Z,21312.00
2018-08-23T07:55:47.343Z,20224.00
2018-08-23T07:56:47.597Z,18688.00
2018-08-23T07:57:47.852Z,18016.00
2018-08-23T07:58:48.100Z,18144.00
2018-08-23T07:59:48.353Z,17760.00
2018-08-23T08:00:48.606Z,17440.00
2018-08-23T08:01:48.859Z,17056.00
2018-08-23T08:02:49.113Z,17216.00
2018-08-23T08:03:49.363Z,18944.00
2018-08-23T08:04:49.629Z,26144.00
2018-08-23T08:05:49.893Z,33344.00
2018-08-23T08:06:50.153Z,33920.00
2018-08-23T08:07:50.400Z,33568.00
2018-08-23T08:08:50.652Z,35072.00
2018-08-23T08:09:50.903Z,35040.00
2018-08-23T08:10:51.159Z,35424.00
2018-08-23T08:11:51.402Z,37344.00
2018-08-23T08:12:51.660Z,38560.00
2018-08-23T08:13:51.911Z,37024.00
2018-08-23T08:14:52.200Z,34464.00
2018-08-23T08:15:52.425Z,37120.00
2018-08-23T08:16:52.672Z,40128.00
2018-08-23T08:17:52.935Z,41216.00
2018-08-23T08:18:53.193Z,40352.00
2018-08-23T08:19:53.443Z,39104.00
2018-08-23T08:20:53.737Z,39648.00
2018-08-23T08:21:53.944Z,41408.00
2018-08-23T08:22:54.201Z,44352.00
2018-08-23T08:23:54.452Z,45856.00
2018-08-23T08:24:54.704Z,45920.00
2018-08-23T08:25:54.965Z,43872.00
2018-08-23T08:26:55.214Z,45568.00
2018-08-23T08:27:55.471Z,46368.00
2018-08-23T08:28:55.725Z,46816.00
2018-08-23T08:29:55.980Z,44416.00
2018-08-23T08:30:56.234Z,48192.00
2018-08-23T08:31:56.488Z,48352.00
2018-08-23T08:32:56.742Z,48544.00
2018-08-23T08:33:56.996Z,48928.00
2018-08-23T08:34:57.250Z,51296.00
2018-08-23T08:35:57.505Z,51104.00
2018-08-23T08:36:57.761Z,51808.00
2018-08-23T08:37:58.043Z,56288.00
2018-08-23T08:38:58.302Z,58368.00
2018-08-23T08:39:58.557Z,54080.00
2018-08-23T08:40:58.816Z,55040.00
2018-08-23T08:41:59.105Z,54528.00
2018-08-23T08:42:59.325Z,54688.00
2018-08-23T08:43:59.579Z,48672.00
2018-08-23T08:44:59.840Z,46368.00
2018-08-23T08:46:00.095Z,57504.00
2018-08-23T08:47:00.350Z,58240.00
2018-08-23T08:48:00.604Z,57952.00
2018-08-23T08:49:00.871Z,57792.00
2018-08-23T08:50:01.110Z,57920.00
2018-08-23T08:51:01.366Z,58432.00
2018-08-23T08:52:01.622Z,58016.00
2018-08-23T08:53:01.878Z,57728.00
2018-08-23T08:54:02.133Z,58240.00
2018-08-23T08:55:02.393Z,59808.00
2018-08-23T08:56:02.646Z,59680.00
2018-08-23T08:57:02.932Z,59232.00
2018-08-23T08:58:03.159Z,60000.00
2018-08-23T08:59:03.416Z,62528.00
2018-08-23T09:00:03.673Z,63712.00
2018-08-23T09:01:03.920Z,62624.00
2018-08-23T09:02:04.167Z,63520.00
2018-08-23T09:03:04.440Z,62272.00
2018-08-23T09:04:04.698Z,64128.00
2018-08-23T09:05:04.953Z,66176.00
2018-08-23T09:06:05.201Z,65312.00
2018-08-23T09:07:05.456Z,67424.00
2018-08-23T09:08:05.715Z,68736.00
2018-08-23T09:09:05.971Z,69472.00
2018-08-23T09:10:06.230Z,69856.00
2018-08-23T09:11:06.492Z,69664.00
2018-08-23T09:12:06.743Z,66720.00
2018-08-23T09:13:06.999Z,66368.00
2018-08-23T09:14:07.256Z,68064.00
2018-08-23T09:15:07.513Z,69344.00
2018-08-23T09:16:07.769Z,70496.00
2018-08-23T09:17:08.018Z,71808.00
2018-08-23T09:18:08.281Z,70208.00
2018-08-23T09:19:08.538Z,72384.00
2018-08-23T09:20:08.794Z,72320.00
2018-08-23T09:21:09.049Z,70304.00
2018-08-23T09:22:09.312Z,70400.00
2018-08-23T09:23:09.568Z,72640.00
2018-08-23T09:24:09.824Z,73248.00
2018-08-23T09:25:10.108Z,73056.00
2018-08-23T09:26:10.334Z,76928.00
2018-08-23T09:27:10.617Z,79168.00
2018-08-23T09:28:10.848Z,76480.00
2018-08-23T09:29:11.105Z,72416.00
2018-08-23T09:30:11.362Z,70112.00
2018-08-23T09:31:11.619Z,71648.00
2018-08-23T09:32:11.884Z,73120.00
2018-08-23T09:33:12.134Z,72768.00
2018-08-23T09:34:12.393Z,74720.00
2018-08-23T09:35:12.683Z,75232.00
2018-08-23T09:36:12.908Z,78848.00
2018-08-23T09:37:13.162Z,79840.00
2018-08-23T09:38:13.418Z,79360.00
2018-08-23T09:39:13.674Z,79712.00
2018-08-23T09:40:13.932Z,78848.00
2018-08-23T09:41:14.190Z,75392.00
2018-08-23T09:42:14.447Z,76928.00
2018-08-23T09:43:14.705Z,79840.00
2018-08-23T09:44:14.961Z,80416.00
2018-08-23T09:45:15.222Z,80192.00
2018-08-23T09:46:15.485Z,81536.00
2018-08-23T09:47:15.735Z,83168.00
2018-08-23T09:48:15.992Z,82304.00
2018-08-23T09:49:16.248Z,82272.00
2018-08-23T09:50:16.576Z,84448.00
2018-08-23T09:51:16.798Z,84384.00
2018-08-23T09:52:17.075Z,81632.00
2018-08-23T09:53:17.277Z,79456.00
2018-08-23T09:54:17.536Z,82560.00
2018-08-23T09:55:17.790Z,84864.00
2018-08-23T09:56:18.047Z,84416.00
2018-08-23T09:57:18.304Z,84288.00
2018-08-23T09:58:19.395Z,86304.00
2018-08-23T09:59:18.965Z,83264.00
2018-08-23T10:00:19.223Z,62816.00
2018-08-23T10:01:19.480Z,67200.00
2018-08-23T10:02:19.740Z,70144.00
2018-08-23T10:03:19.997Z,83712.00
2018-08-23T10:04:20.276Z,83136.00
2018-08-23T10:05:20.512Z,89952.00
2018-08-23T10:06:20.769Z,71328.00
2018-08-23T10:07:21.027Z,80992.00
2018-08-23T10:08:21.285Z,84224.00
2018-08-23T10:09:21.541Z,86880.00
2018-08-23T10:10:21.798Z,80960.00
2018-08-23T10:11:22.081Z,89632.00
2018-08-23T10:12:22.310Z,94016.00
2018-08-23T10:13:22.568Z,93664.00
2018-08-23T10:14:22.826Z,90016.00
2018-08-23T10:15:23.084Z,90688.00
2018-08-23T10:16:23.340Z,90336.00
2018-08-23T10:17:23.597Z,87232.00
2018-08-23T10:18:23.867Z,87616.00
2018-08-23T10:19:24.111Z,66464.00
2018-08-23T10:20:24.368Z,70336.00
2018-08-23T10:21:24.627Z,72832.00
2018-08-23T10:22:24.881Z,90368.00
2018-08-23T10:23:25.138Z,95904.00
2018-08-23T10:24:25.404Z,96512.00
2018-08-23T10:25:25.652Z,93792.00
2018-08-23T10:26:25.916Z,92096.00
2018-08-23T10:27:26.167Z,92160.00
2018-08-23T10:28:26.425Z,91360.00
2018-08-23T10:29:26.679Z,91968.00
2018-08-23T10:30:26.937Z,93344.00
2018-08-23T10:31:27.194Z,95648.00
2018-08-23T10:32:27.452Z,95264.00
2018-08-23T10:33:27.710Z,91968.00
2018-08-23T10:34:27.968Z,91872.00
2018-08-23T10:35:28.227Z,94080.00
2018-08-23T10:36:28.485Z,95136.00
2018-08-23T10:37:28.741Z,95936.00
2018-08-23T10:38:28.998Z,97536.00
2018-08-23T10:39:29.255Z,68736.00
2018-08-23T10:40:29.513Z,93504.00
2018-08-23T10:41:29.770Z,98880.00
2018-08-23T10:42:30.027Z,101120.00
2018-08-23T10:43:30.290Z,101952.00
2018-08-23T10:44:30.593Z,80864.00
2018-08-23T10:45:30.800Z,97824.00
2018-08-23T10:46:31.059Z,62496.00
2018-08-23T10:47:31.316Z,101984.00
2018-08-23T10:48:31.573Z,86272.00
2018-08-23T10:49:31.831Z,107904.00
2018-08-23T10:50:32.131Z,103104.00
2018-08-23T10:51:32.347Z,101856.00
2018-08-23T10:52:32.595Z,99776.00
2018-08-23T10:53:32.851Z,100384.00
2018-08-23T10:54:33.110Z,100128.00
2018-08-23T10:55:33.369Z,100864.00
2018-08-23T10:56:33.629Z,75616.00
2018-08-23T10:57:33.886Z,106016.00
2018-08-23T10:58:34.146Z,49632.00
2018-08-23T10:59:34.405Z,47360.00
2018-08-23T11:00:34.666Z,61216.00
2018-08-23T11:01:34.928Z,68608.00
2018-08-23T11:02:35.183Z,80896.00
2018-08-23T11:03:35.442Z,47328.00
2018-08-23T11:04:35.702Z,61408.00
2018-08-23T11:05:35.960Z,75200.00
2018-08-23T11:06:36.218Z,53280.00
2018-08-23T11:07:36.476Z,46816.00
2018-08-23T11:08:36.733Z,46048.00
2018-08-23T11:09:37.046Z,40832.00
2018-08-23T11:10:37.249Z,34784.00
2018-08-23T11:11:37.508Z,48096.00
2018-08-23T11:12:37.765Z,51584.00
2018-08-23T11:13:38.024Z,102720.00
2018-08-23T11:14:38.279Z,115904.00
2018-08-23T11:15:38.537Z,109536.00
2018-08-23T11:16:38.816Z,105024.00
2018-08-23T11:17:39.053Z,99616.00
2018-08-23T11:18:39.309Z,83424.00
2018-08-23T11:19:39.569Z,111232.00
2018-08-23T11:20:39.825Z,107968.00
2018-08-23T11:21:40.089Z,100064.00
2018-08-23T11:22:40.343Z,100544.00
2018-08-23T11:23:40.602Z,97248.00
2018-08-23T11:24:40.857Z,96416.00
2018-08-23T11:25:41.117Z,98496.00
2018-08-23T11:26:41.373Z,101248.00
2018-08-23T11:27:41.629Z,105792.00
2018-08-23T11:28:41.887Z,99072.00
2018-08-23T11:29:42.260Z,93888.00
2018-08-23T11:30:42.401Z,94976.00
2018-08-23T11:31:42.659Z,101248.00
2018-08-23T11:32:42.921Z,101600.00
2018-08-23T11:33:43.179Z,104224.00
2018-08-23T11:34:43.436Z,106176.00
2018-08-23T11:35:43.697Z,104256.00
2018-08-23T11:36:43.954Z,101504.00
2018-08-23T11:37:44.216Z,100864.00
2018-08-23T11:38:44.473Z,96896.00
2018-08-23T11:39:44.726Z,97760.00
2018-08-23T11:40:44.992Z,76128.00
2018-08-23T11:41:45.249Z,109632.00
2018-08-23T11:42:45.545Z,107456.00
2018-08-23T11:43:45.778Z,104032.00
2018-08-23T11:44:46.025Z,100256.00
2018-08-23T11:45:46.288Z,81632.00
2018-08-23T11:46:46.547Z,72416.00
2018-08-23T11:47:46.804Z,74592.00
2018-08-23T11:48:47.108Z,69632.00
2018-08-23T11:49:47.326Z,114016.00
2018-08-23T11:50:47.585Z,115968.00
2018-08-23T11:51:47.847Z,34272.00
2018-08-23T11:52:48.107Z,92224.00
2018-08-23T11:53:48.425Z,72768.00
2018-08-23T11:54:48.627Z,101856.00
2018-08-23T11:55:48.884Z,101984.00
2018-08-23T11:56:49.144Z,108320.00
2018-08-23T11:57:49.424Z,107744.00
2018-08-23T11:58:49.662Z,105760.00
2018-08-23T11:59:49.924Z,104992.00
2018-08-23T12:00:50.180Z,30752.00
2018-08-23T12:01:50.439Z,28224.00
2018-08-23T12:02:50.697Z,28320.00
2018-08-23T12:03:50.956Z,46592.00
2018-08-23T12:04:51.214Z,103520.00
2018-08-23T12:05:51.473Z,106816.00
2018-08-23T12:06:51.734Z,31808.00
2018-08-23T12:07:51.992Z,93440.00
2018-08-23T12:08:52.252Z,27200.00
2018-08-23T12:09:52.520Z,50368.00
2018-08-23T12:10:53.092Z,106976.00
2018-08-23T12:11:53.323Z,99872.00
2018-08-23T12:12:53.396Z,110496.00
2018-08-23T12:13:53.673Z,102112.00
2018-08-23T12:14:53.929Z,92224.00
2018-08-23T12:15:54.189Z,53824.00
2018-08-23T12:16:54.444Z,111424.00
2018-08-23T12:17:54.699Z,106592.00
2018-08-23T12:18:54.956Z,105216.00
2018-08-23T12:19:55.214Z,79392.00
2018-08-23T12:20:55.470Z,38944.00